Time;durP1;ratioP1;P1;durP2;ratioP2;P2;SDS_P1;SDS_P2;PMS_P1;PMS_P2;Temp;Humidity;BMP_temperature;BMP_pressure;BME280_temperature;BME280_humidity;BME280_pressure;Samples;Min_cycle;Max_cycle;Signal;HPM_P1;HPM_P2
2023/05/14 00:00:02;;;;;;;;;;;22.10;51.20;;;;;;1608593;72;1736;-63
2023/05/14 00:02:04;;;;;;;;;;;22.20;51.10;;;;;;1610017;72;1142;-63
2023/05/14 00:04:06;;;;;;;;;;;22.20;51.10;;;;;;1610274;72;762;-63
2023/05/14 00:06:09;;;;;;;;;;;22.20;51.10;;;;;;1607713;72;1978;-63
2023/05/14 00:08:11;;;;;;;;;;;22.20;51.20;;;;;;1606326;72;774;-63
2023/05/14 00:10:13;;;;;;;;;;;22.10;51.20;;;;;;1606135;72;799;-63
2023/05/14 00:12:15;;;;;;;;;;;22.10;51.20;;;;;;1620669;72;1452;-63
2023/05/14 00:14:17;;;;;;;;;;;22.20;51.20;;;;;;1611382;72;746;-63
2023/05/14 00:16:18;;;;;;;;;;;22.10;51.30;;;;;;1611381;72;817;-64
2023/05/14 00:18:20;;;;;;;;;;;22.10;51.20;;;;;;1619163;72;644;-65
2023/05/14 00:20:22;;;;;;;;;;;22.10;51.30;;;;;;1609881;72;695;-63
2023/05/14 00:22:24;;;;;;;;;;;22.10;51.30;;;;;;1611009;72;1190;-64
2023/05/14 00:24:26;;;;;;;;;;;22.10;51.30;;;;;;1609974;73;757;-63
2023/05/14 00:26:28;;;;;;;;;;;22.10;51.20;;;;;;1601545;73;1941;-64
2023/05/14 00:28:30;;;;;;;;;;;22.10;51.30;;;;;;1604465;72;768;-64
2023/05/14 00:30:32;;;;;;;;;;;22.10;51.30;;;;;;1611618;72;1238;-63
2023/05/14 00:32:34;;;;;;;;;;;22.00;51.30;;;;;;1610549;72;770;-64
2023/05/14 00:34:35;;;;;;;;;;;22.10;51.30;;;;;;1609704;72;699;-63
2023/05/14 00:36:37;;;;;;;;;;;22.00;51.20;;;;;;1607558;73;814;-62
2023/05/14 00:38:39;;;;;;;;;;;22.10;51.30;;;;;;1614084;72;800;-64
2023/05/14 00:40:44;;;;;;;;;;;22.10;51.30;;;;;;1610498;72;1429;-63
2023/05/14 00:42:45;;;;;;;;;;;22.10;51.30;;;;;;1607775;72;1599;-64
2023/05/14 00:44:46;;;;;;;;;;;22.10;51.30;;;;;;1612347;72;1932;-64
2023/05/14 00:46:48;;;;;;;;;;;22.10;51.30;;;;;;1609236;72;832;-63
2023/05/14 00:48:50;;;;;;;;;;;22.10;51.30;;;;;;1609562;72;763;-63
2023/05/14 00:50:52;;;;;;;;;;;22.10;51.30;;;;;;1614445;72;1168;-63
2023/05/14 00:52:54;;;;;;;;;;;22.00;51.30;;;;;;1610081;72;786;-63
2023/05/14 00:54:56;;;;;;;;;;;22.00;51.20;;;;;;1609242;72;1436;-66
2023/05/14 00:56:58;;;;;;;;;;;22.00;51.30;;;;;;1609404;72;727;-65
2023/05/14 00:59:00;;;;;;;;;;;22.00;51.30;;;;;;1609796;72;782;-65
2023/05/14 01:01:02;;;;;;;;;;;22.00;51.30;;;;;;1608768;72;1142;-64
2023/05/14 01:03:04;;;;;;;;;;;22.00;51.30;;;;;;1609726;72;785;-63
2023/05/14 01:05:06;;;;;;;;;;;22.00;51.30;;;;;;1605958;72;1953;-63
2023/05/14 01:07:24;;;;;;;;;;;22.00;51.40;;;;;;1607383;72;748;-63
2023/05/14 01:09:28;;;;;;;;;;;22.00;51.30;;;;;;1605469;72;1393;-64
2023/05/14 01:11:31;;;;;;;;;;;22.00;51.30;;;;;;1604110;72;1228;-63
2023/05/14 01:13:47;;;;;;;;;;;22.00;51.30;;;;;;1612874;72;744;-64
2023/05/14 01:15:49;;;;;;;;;;;22.00;51.30;;;;;;1611661;72;1646;-64
2023/05/14 01:18:01;;;;;;;;;;;22.00;51.30;;;;;;1619575;72;768;-63
2023/05/14 01:20:03;;;;;;;;;;;22.00;51.30;;;;;;1593462;72;1519;-65
2023/05/14 01:22:05;;;;;;;;;;;22.00;51.40;;;;;;1609428;72;1151;-63
2023/05/14 01:24:07;;;;;;;;;;;22.00;51.40;;;;;;1599252;72;1463;-63
2023/05/14 01:26:09;;;;;;;;;;;22.00;51.40;;;;;;1612223;73;1914;-62
2023/05/14 01:28:18;;;;;;;;;;;21.90;51.40;;;;;;1604672;72;767;-63
2023/05/14 01:30:24;;;;;;;;;;;22.00;51.40;;;;;;1606248;72;760;-65
2023/05/14 01:32:26;;;;;;;;;;;22.00;51.50;;;;;;1606283;72;748;-63
2023/05/14 01:34:28;;;;;;;;;;;22.00;51.50;;;;;;1606126;72;727;-63
2023/05/14 01:36:30;;;;;;;;;;;22.00;51.50;;;;;;1600961;72;1544;-63
2023/05/14 01:38:32;;;;;;;;;;;21.90;51.50;;;;;;1611954;72;838;-63
2023/05/14 01:40:35;;;;;;;;;;;22.00;51.50;;;;;;1605093;72;1180;-63
2023/05/14 01:42:37;;;;;;;;;;;22.00;51.50;;;;;;1607894;73;756;-63
2023/05/14 01:44:39;;;;;;;;;;;21.90;51.50;;;;;;1608333;72;767;-63
2023/05/14 01:46:41;;;;;;;;;;;22.00;51.50;;;;;;1606704;72;1930;-63
2023/05/14 01:48:42;;;;;;;;;;;21.90;51.50;;;;;;1605024;72;783;-62
2023/05/14 01:50:44;;;;;;;;;;;21.90;51.50;;;;;;1609604;72;1543;-63
2023/05/14 01:52:52;;;;;;;;;;;21.90;51.50;;;;;;1606469;73;770;-64
2023/05/14 01:54:50;;;;;;;;;;;21.90;51.60;;;;;;1609118;72;1017;-63
2023/05/14 01:56:52;;;;;;;;;;;21.90;51.50;;;;;;1609222;72;755;-63
2023/05/14 01:58:55;;;;;;;;;;;21.90;51.60;;;;;;1594274;73;815;-64
2023/05/14 02:00:57;;;;;;;;;;;21.90;51.60;;;;;;1610344;72;1131;-62
2023/05/14 02:02:59;;;;;;;;;;;21.90;51.60;;;;;;1612238;72;807;-63
2023/05/14 02:05:01;;;;;;;;;;;21.90;51.60;;;;;;1605421;72;1381;-64
2023/05/14 02:07:03;;;;;;;;;;;21.90;51.60;;;;;;1596541;72;1944;-62
2023/05/14 02:09:05;;;;;;;;;;;21.90;51.60;;;;;;1595040;72;756;-63
2023/05/14 02:11:06;;;;;;;;;;;21.90;51.60;;;;;;1608699;72;1306;-63
2023/05/14 02:13:08;;;;;;;;;;;21.90;51.60;;;;;;1610870;73;779;-62
2023/05/14 02:15:10;;;;;;;;;;;21.90;51.70;;;;;;1608671;72;750;-63
2023/05/14 02:17:14;;;;;;;;;;;21.90;51.70;;;;;;1601685;72;702;-63
2023/05/14 02:19:16;;;;;;;;;;;21.90;51.60;;;;;;1603959;73;1624;-62
2023/05/14 02:21:18;;;;;;;;;;;21.90;51.60;;;;;;1609765;72;1134;-63
2023/05/14 02:23:20;;;;;;;;;;;21.80;51.50;;;;;;1609280;72;763;-62
2023/05/14 02:25:21;;;;;;;;;;;21.80;51.50;;;;;;1596197;72;1914;-63
2023/05/14 02:27:23;;;;;;;;;;;21.90;51.60;;;;;;1606201;72;922;-63
2023/05/14 02:29:25;;;;;;;;;;;21.90;51.60;;;;;;1602266;72;720;-63
2023/05/14 02:31:27;;;;;;;;;;;21.90;51.70;;;;;;1610207;72;1241;-64
2023/05/14 02:33:29;;;;;;;;;;;21.80;51.50;;;;;;1605217;72;1483;-62
2023/05/14 02:35:31;;;;;;;;;;;21.80;51.60;;;;;;1611700;72;758;-63
2023/05/14 02:37:33;;;;;;;;;;;21.90;51.80;;;;;;1607643;72;762;-63
2023/05/14 02:39:35;;;;;;;;;;;21.80;51.60;;;;;;1612709;73;806;-63
2023/05/14 02:41:37;;;;;;;;;;;21.90;51.70;;;;;;1611473;73;1158;-63
2023/05/14 02:43:40;;;;;;;;;;;21.80;51.50;;;;;;1611640;72;760;-64
2023/05/14 02:45:41;;;;;;;;;;;21.90;51.60;;;;;;1606698;72;1930;-63
2023/05/14 02:47:43;;;;;;;;;;;21.80;51.50;;;;;;1610312;72;1413;-62
2023/05/14 02:49:45;;;;;;;;;;;21.80;51.60;;;;;;1611884;72;759;-63
2023/05/14 02:51:47;;;;;;;;;;;21.80;51.60;;;;;;1612669;72;1151;-63
2023/05/14 02:53:49;;;;;;;;;;;21.90;51.70;;;;;;1604757;72;779;-63
2023/05/14 02:55:51;;;;;;;;;;;21.80;51.60;;;;;;1602844;72;827;-65
2023/05/14 02:57:53;;;;;;;;;;;21.80;51.60;;;;;;1609521;72;794;-62
2023/05/14 02:59:54;;;;;;;;;;;21.80;51.70;;;;;;1609918;72;1111;-63
2023/05/14 03:01:56;;;;;;;;;;;21.80;51.60;;;;;;1605714;72;1445;-62
2023/05/14 03:03:58;;;;;;;;;;;21.90;51.80;;;;;;1610897;72;1085;-63
2023/05/14 03:06:00;;;;;;;;;;;21.80;51.70;;;;;;1615644;72;1946;-63
2023/05/14 03:08:02;;;;;;;;;;;21.90;51.70;;;;;;1608226;72;687;-63
2023/05/14 03:10:04;;;;;;;;;;;21.80;51.60;;;;;;1610405;72;813;-62
2023/05/14 03:12:07;;;;;;;;;;;21.80;51.60;;;;;;1613862;72;1185;-64
2023/05/14 03:14:08;;;;;;;;;;;21.80;51.60;;;;;;1611274;72;743;-63
2023/05/14 03:16:10;;;;;;;;;;;21.80;51.60;;;;;;1609665;74;1460;-62
2023/05/14 03:18:15;;;;;;;;;;;21.80;51.60;;;;;;1602209;72;698;-64
2023/05/14 03:20:17;;;;;;;;;;;21.80;51.60;;;;;;1610297;72;673;-64
2023/05/14 03:22:19;;;;;;;;;;;21.80;51.60;;;;;;1604205;73;1120;-62
2023/05/14 03:24:21;;;;;;;;;;;21.80;51.60;;;;;;1609581;73;766;-63
2023/05/14 03:26:22;;;;;;;;;;;21.80;51.60;;;;;;1613422;72;1936;-63
2023/05/14 03:28:24;;;;;;;;;;;21.80;51.60;;;;;;1616174;72;777;-63
2023/05/14 03:30:26;;;;;;;;;;;21.80;51.60;;;;;;1601914;72;1445;-62
2023/05/14 03:32:28;;;;;;;;;;;21.80;51.60;;;;;;1568122;74;814;-63
2023/05/14 03:34:30;;;;;;;;;;;21.80;51.60;;;;;;1542892;75;763;-62
2023/05/14 03:36:35;;;;;;;;;;;21.80;51.50;;;;;;1574139;74;774;-64
2023/05/14 03:38:36;;;;;;;;;;;21.80;51.50;;;;;;1575084;74;1607;-63
2023/05/14 03:40:38;;;;;;;;;;;21.80;51.50;;;;;;1575009;74;1165;-63
2023/05/14 03:42:39;;;;;;;;;;;21.80;51.50;;;;;;1571921;74;698;-63
2023/05/14 03:44:41;;;;;;;;;;;21.80;51.50;;;;;;1571183;74;1452;-63
2023/05/14 03:46:43;;;;;;;;;;;21.80;51.50;;;;;;1608689;72;1930;-64
2023/05/14 03:48:45;;;;;;;;;;;21.90;51.70;;;;;;1608329;72;769;-65
2023/05/14 03:50:47;;;;;;;;;;;21.80;51.50;;;;;;1610073;72;1159;-63
2023/05/14 03:52:49;;;;;;;;;;;21.90;51.70;;;;;;1601006;72;780;-64
2023/05/14 03:54:51;;;;;;;;;;;21.80;51.50;;;;;;1610139;72;780;-62
2023/05/14 03:56:53;;;;;;;;;;;21.80;51.50;;;;;;1601492;72;785;-63
2023/05/14 03:58:55;;;;;;;;;;;21.80;51.50;;;;;;1597543;72;1437;-63
2023/05/14 04:00:56;;;;;;;;;;;21.80;51.50;;;;;;1612512;72;1170;-62
2023/05/14 04:02:58;;;;;;;;;;;21.80;51.50;;;;;;1610086;72;698;-63
2023/05/14 04:05:00;;;;;;;;;;;21.80;51.50;;;;;;1608980;73;783;-63
2023/05/14 04:07:02;;;;;;;;;;;21.80;51.50;;;;;;1609768;72;1936;-63
2023/05/14 04:09:04;;;;;;;;;;;21.80;51.50;;;;;;1613465;72;798;-63
2023/05/14 04:11:06;;;;;;;;;;;21.80;51.50;;;;;;1606820;72;1183;-63
2023/05/14 04:13:08;;;;;;;;;;;21.80;51.50;;;;;;1611022;72;1500;-63
2023/05/14 04:15:10;;;;;;;;;;;21.80;51.50;;;;;;1612790;72;786;-64
2023/05/14 04:17:12;;;;;;;;;;;21.80;51.50;;;;;;1600483;72;754;-64
2023/05/14 04:19:14;;;;;;;;;;;21.80;51.50;;;;;;1609020;72;672;-65
2023/05/14 04:21:15;;;;;;;;;;;21.80;51.50;;;;;;1609955;72;1163;-63
2023/05/14 04:23:17;;;;;;;;;;;21.80;51.50;;;;;;1609849;73;676;-62
2023/05/14 04:25:19;;;;;;;;;;;21.80;51.50;;;;;;1598172;73;1425;-63
2023/05/14 04:27:21;;;;;;;;;;;21.80;51.50;;;;;;1608876;72;1920;-62
2023/05/14 04:29:23;;;;;;;;;;;21.80;51.50;;;;;;1604788;72;656;-63
2023/05/14 04:31:25;;;;;;;;;;;21.80;51.50;;;;;;1609908;72;1214;-64
2023/05/14 04:33:27;;;;;;;;;;;21.80;51.40;;;;;;1611360;73;749;-68
2023/05/14 04:35:28;;;;;;;;;;;21.80;51.40;;;;;;1601917;72;771;-63
2023/05/14 04:37:31;;;;;;;;;;;21.80;51.40;;;;;;1609272;73;778;-63
2023/05/14 04:39:33;;;;;;;;;;;21.80;51.50;;;;;;1607846;72;1442;-62
2023/05/14 04:41:35;;;;;;;;;;;21.80;51.50;;;;;;1608287;72;1234;-63
2023/05/14 04:43:37;;;;;;;;;;;21.80;51.50;;;;;;1599827;72;732;-63
2023/05/14 04:45:39;;;;;;;;;;;21.80;51.50;;;;;;1607293;72;758;-63
2023/05/14 04:47:41;;;;;;;;;;;21.80;51.50;;;;;;1618223;72;1926;-63
2023/05/14 04:49:43;;;;;;;;;;;21.80;51.50;;;;;;1612069;72;754;-63
2023/05/14 04:51:45;;;;;;;;;;;21.80;51.50;;;;;;1602829;72;1170;-63
2023/05/14 04:53:47;;;;;;;;;;;21.80;51.40;;;;;;1602426;73;1455;-62
2023/05/14 04:55:49;;;;;;;;;;;21.90;51.60;;;;;;1609020;73;775;-63
2023/05/14 04:57:51;;;;;;;;;;;21.90;51.50;;;;;;1617420;72;766;-66
2023/05/14 04:59:53;;;;;;;;;;;21.90;51.50;;;;;;1598604;73;779;-65
2023/05/14 05:01:55;;;;;;;;;;;21.90;51.50;;;;;;1609316;72;1150;-62
2023/05/14 05:03:57;;;;;;;;;;;21.90;51.50;;;;;;1601408;73;764;-63
2023/05/14 05:05:59;;;;;;;;;;;21.80;51.40;;;;;;1607544;72;756;-63
2023/05/14 05:08:00;;;;;;;;;;;21.90;51.40;;;;;;1602096;72;1949;-63
2023/05/14 05:10:03;;;;;;;;;;;21.80;51.30;;;;;;1609985;72;780;-64
2023/05/14 05:12:05;;;;;;;;;;;21.90;51.50;;;;;;1611079;72;1191;-63
2023/05/14 05:14:07;;;;;;;;;;;21.80;51.40;;;;;;1605698;72;778;-62
2023/05/14 05:16:09;;;;;;;;;;;21.80;51.40;;;;;;1610514;72;739;-63
2023/05/14 05:18:10;;;;;;;;;;;21.80;51.40;;;;;;1601102;72;780;-63
2023/05/14 05:20:12;;;;;;;;;;;21.80;51.50;;;;;;1609338;72;779;-65
2023/05/14 05:22:14;;;;;;;;;;;21.80;51.50;;;;;;1610699;72;1483;-62
2023/05/14 05:24:16;;;;;;;;;;;21.80;51.50;;;;;;1609175;72;737;-63
2023/05/14 05:26:18;;;;;;;;;;;21.80;51.50;;;;;;1609635;73;681;-63
2023/05/14 05:28:20;;;;;;;;;;;21.80;51.50;;;;;;1611476;72;1926;-63
2023/05/14 05:30:22;;;;;;;;;;;21.80;51.50;;;;;;1610379;72;732;-63
2023/05/14 05:32:24;;;;;;;;;;;21.80;51.50;;;;;;1607523;72;1190;-63
2023/05/14 05:34:25;;;;;;;;;;;21.80;51.50;;;;;;1609754;72;777;-64
2023/05/14 05:36:27;;;;;;;;;;;21.80;51.50;;;;;;1603736;72;1445;-62
2023/05/14 05:38:29;;;;;;;;;;;21.80;51.40;;;;;;1610943;72;784;-64
2023/05/14 05:40:31;;;;;;;;;;;21.80;51.50;;;;;;1610383;72;1231;-63
2023/05/14 05:42:33;;;;;;;;;;;21.80;51.50;;;;;;1610664;72;766;-64
2023/05/14 05:44:35;;;;;;;;;;;21.80;51.50;;;;;;1609020;72;777;-63
2023/05/14 05:46:37;;;;;;;;;;;21.80;51.50;;;;;;1610705;73;1925;-63
2023/05/14 05:48:38;;;;;;;;;;;21.80;51.40;;;;;;1606625;73;778;-63
2023/05/14 05:50:43;;;;;;;;;;;21.80;51.50;;;;;;1608811;72;1442;-63
2023/05/14 05:52:44;;;;;;;;;;;21.80;51.50;;;;;;1610456;72;1625;-63
2023/05/14 05:54:46;;;;;;;;;;;21.80;51.50;;;;;;1606788;72;736;-64
2023/05/14 05:56:48;;;;;;;;;;;21.80;51.50;;;;;;1604291;73;641;-62
2023/05/14 05:58:50;;;;;;;;;;;21.70;51.50;;;;;;1596312;72;773;-64
2023/05/14 06:00:52;;;;;;;;;;;21.80;51.40;;;;;;1608824;72;1174;-64
2023/05/14 06:02:55;;;;;;;;;;;21.80;51.40;;;;;;1606599;72;788;-63
2023/05/14 06:04:56;;;;;;;;;;;21.80;51.50;;;;;;1610900;72;1378;-63
2023/05/14 06:06:58;;;;;;;;;;;21.80;51.50;;;;;;1615456;72;1951;-64
2023/05/14 06:09:00;;;;;;;;;;;21.80;51.50;;;;;;1614344;73;673;-63
2023/05/14 06:11:02;;;;;;;;;;;21.80;51.40;;;;;;1611253;72;1215;-63
2023/05/14 06:13:05;;;;;;;;;;;21.80;51.50;;;;;;1609862;73;771;-63
2023/05/14 06:15:07;;;;;;;;;;;21.80;51.40;;;;;;1597823;72;749;-64
2023/05/14 06:17:09;;;;;;;;;;;21.80;51.40;;;;;;1609108;72;775;-65
2023/05/14 06:19:11;;;;;;;;;;;21.80;51.40;;;;;;1613590;72;1459;-61
2023/05/14 06:21:13;;;;;;;;;;;21.80;51.40;;;;;;1608244;72;1151;-62
2023/05/14 06:23:15;;;;;;;;;;;21.80;51.40;;;;;;1609588;72;771;-63
2023/05/14 06:25:16;;;;;;;;;;;21.80;51.40;;;;;;1608987;73;738;-62
2023/05/14 06:27:18;;;;;;;;;;;21.80;51.30;;;;;;1607239;72;1931;-62
2023/05/14 06:29:20;;;;;;;;;;;21.80;51.40;;;;;;1602477;73;799;-63
2023/05/14 06:31:22;;;;;;;;;;;21.80;51.40;;;;;;1609846;73;1187;-63
2023/05/14 06:33:29;;;;;;;;;;;21.80;51.30;;;;;;1609658;72;1433;-62
2023/05/14 06:35:27;;;;;;;;;;;21.80;51.40;;;;;;1610873;72;1462;-63
2023/05/14 06:37:29;;;;;;;;;;;21.80;51.30;;;;;;1606825;72;751;-62
2023/05/14 06:39:31;;;;;;;;;;;21.80;51.30;;;;;;1607349;72;637;-62
2023/05/14 06:41:33;;;;;;;;;;;21.80;51.30;;;;;;1609519;72;1239;-64
2023/05/14 06:43:35;;;;;;;;;;;21.70;51.30;;;;;;1610579;72;775;-63
2023/05/14 06:45:37;;;;;;;;;;;21.80;51.30;;;;;;1605622;72;784;-62
2023/05/14 06:47:40;;;;;;;;;;;21.80;51.30;;;;;;1611297;72;1936;-63
2023/05/14 06:49:41;;;;;;;;;;;21.80;51.30;;;;;;1609786;72;791;-62
2023/05/14 06:51:43;;;;;;;;;;;21.80;51.30;;;;;;1609908;72;1179;-61
2023/05/14 06:53:47;;;;;;;;;;;21.70;51.40;;;;;;1610524;72;759;-62
2023/05/14 06:55:49;;;;;;;;;;;21.70;51.40;;;;;;1609275;72;1643;-63
2023/05/14 06:57:51;;;;;;;;;;;21.70;51.40;;;;;;1608356;72;728;-66
2023/05/14 06:59:53;;;;;;;;;;;21.80;51.40;;;;;;1594198;72;786;-63
2023/05/14 07:01:55;;;;;;;;;;;21.80;51.40;;;;;;1613882;72;1607;-65
2023/05/14 07:03:57;;;;;;;;;;;21.80;51.30;;;;;;1600558;72;777;-63
2023/05/14 07:05:58;;;;;;;;;;;21.80;51.40;;;;;;1609388;72;731;-63
2023/05/14 07:08:00;;;;;;;;;;;21.80;51.40;;;;;;1612749;72;1932;-63
2023/05/14 07:10:02;;;;;;;;;;;21.80;51.40;;;;;;1614285;72;761;-65
2023/05/14 07:12:04;;;;;;;;;;;21.70;51.40;;;;;;1610632;72;1190;-63
2023/05/14 07:14:06;;;;;;;;;;;21.80;51.40;;;;;;1603706;72;1429;-66
2023/05/14 07:16:09;;;;;;;;;;;21.70;51.40;;;;;;1612802;72;816;-64
2023/05/14 07:18:10;;;;;;;;;;;21.80;51.30;;;;;;1601241;72;766;-63
2023/05/14 07:20:12;;;;;;;;;;;21.80;51.30;;;;;;1610300;73;829;-64
2023/05/14 07:22:14;;;;;;;;;;;21.80;51.30;;;;;;1608476;72;1163;-64
2023/05/14 07:24:16;;;;;;;;;;;21.80;51.30;;;;;;1609036;73;772;-62
2023/05/14 07:26:18;;;;;;;;;;;21.80;51.30;;;;;;1611764;72;770;-64
2023/05/14 07:28:20;;;;;;;;;;;21.70;51.30;;;;;;1605380;72;1944;-62
2023/05/14 07:30:22;;;;;;;;;;;21.80;51.30;;;;;;1605473;72;747;-63
2023/05/14 07:32:24;;;;;;;;;;;21.80;51.30;;;;;;1570819;75;1210;-63
2023/05/14 07:34:26;;;;;;;;;;;21.80;51.30;;;;;;1549761;75;776;-64
2023/05/14 07:36:27;;;;;;;;;;;21.70;51.30;;;;;;1540219;75;812;-66
2023/05/14 07:38:29;;;;;;;;;;;21.80;51.30;;;;;;1566090;75;770;-64
2023/05/14 07:40:31;;;;;;;;;;;21.80;51.30;;;;;;1559356;75;1244;-63
2023/05/14 07:42:33;;;;;;;;;;;21.80;51.30;;;;;;1568367;75;1400;-61
2023/05/14 07:44:35;;;;;;;;;;;21.80;51.30;;;;;;1564739;75;752;-63
2023/05/14 07:46:37;;;;;;;;;;;21.70;51.30;;;;;;1554216;75;769;-63
2023/05/14 07:48:39;;;;;;;;;;;21.80;51.30;;;;;;1563406;75;1955;-63
2023/05/14 07:50:41;;;;;;;;;;;21.80;51.30;;;;;;1569002;75;1248;-64
2023/05/14 07:52:43;;;;;;;;;;;21.80;51.30;;;;;;1572987;75;651;-62
2023/05/14 07:54:44;;;;;;;;;;;21.70;51.30;;;;;;1573198;75;777;-63
2023/05/14 07:56:46;;;;;;;;;;;21.80;51.30;;;;;;1572072;75;1470;-62
2023/05/14 07:58:48;;;;;;;;;;;21.70;51.30;;;;;;1579000;74;762;-62
2023/05/14 08:00:50;;;;;;;;;;;21.80;51.30;;;;;;1551384;75;1154;-62
2023/05/14 08:02:52;;;;;;;;;;;21.70;51.30;;;;;;1548120;75;810;-64
2023/05/14 08:04:54;;;;;;;;;;;21.70;51.30;;;;;;1555207;75;828;-63
2023/05/14 08:06:57;;;;;;;;;;;21.70;51.30;;;;;;1571011;75;801;-63
2023/05/14 08:08:58;;;;;;;;;;;21.70;51.30;;;;;;1550122;75;1953;-63
2023/05/14 08:11:02;;;;;;;;;;;21.80;51.30;;;;;;1614577;72;1441;-65
2023/05/14 08:13:04;;;;;;;;;;;21.70;51.30;;;;;;1610312;72;676;-63
2023/05/14 08:15:06;;;;;;;;;;;21.80;51.30;;;;;;1611408;72;698;-63
2023/05/14 08:17:08;;;;;;;;;;;21.70;51.30;;;;;;1610604;72;771;-63
2023/05/14 08:19:11;;;;;;;;;;;21.80;51.30;;;;;;1611672;72;758;-63
2023/05/14 08:21:13;;;;;;;;;;;21.80;51.30;;;;;;1613337;73;1147;-63
2023/05/14 08:23:15;;;;;;;;;;;21.80;51.30;;;;;;1609979;73;775;-64
2023/05/14 08:25:17;;;;;;;;;;;21.70;51.30;;;;;;1610901;72;1422;-66
2023/05/14 08:27:20;;;;;;;;;;;21.80;51.30;;;;;;1610326;72;779;-66
2023/05/14 08:29:22;;;;;;;;;;;21.80;51.30;;;;;;1607219;72;1946;-63
2023/05/14 08:31:24;;;;;;;;;;;21.70;51.30;;;;;;1611423;73;1195;-64
2023/05/14 08:33:25;;;;;;;;;;;21.80;51.30;;;;;;1609673;72;775;-65
2023/05/14 08:35:27;;;;;;;;;;;21.80;51.30;;;;;;1609273;72;761;-63
2023/05/14 08:37:29;;;;;;;;;;;21.80;51.30;;;;;;1609913;72;770;-63
2023/05/14 08:39:31;;;;;;;;;;;21.80;51.20;;;;;;1608356;72;1447;-64
2023/05/14 08:41:33;;;;;;;;;;;21.70;51.30;;;;;;1603822;72;1240;-64
2023/05/14 08:43:39;;;;;;;;;;;21.70;51.30;;;;;;1609203;73;771;-64
2023/05/14 08:45:41;;;;;;;;;;;21.80;51.30;;;;;;1593488;73;1689;-64
2023/05/14 08:47:44;;;;;;;;;;;21.80;51.30;;;;;;1609219;72;1928;-63
2023/05/14 08:49:46;;;;;;;;;;;21.80;51.30;;;;;;1612859;72;771;-64
2023/05/14 08:51:48;;;;;;;;;;;21.80;51.20;;;;;;1609547;72;1162;-63
2023/05/14 08:53:50;;;;;;;;;;;21.80;51.20;;;;;;1607623;72;1441;-64
2023/05/14 08:55:52;;;;;;;;;;;21.80;51.20;;;;;;1613993;72;718;-65
2023/05/14 08:57:55;;;;;;;;;;;21.80;51.10;;;;;;1612313;72;775;-63
2023/05/14 08:59:57;;;;;;;;;;;21.80;51.10;;;;;;1610088;72;823;-61
2023/05/14 09:02:00;;;;;;;;;;;21.80;51.20;;;;;;1606969;72;1120;-63
2023/05/14 09:04:05;;;;;;;;;;;21.80;51.20;;;;;;1614859;73;776;-63
2023/05/14 09:06:06;;;;;;;;;;;21.80;51.20;;;;;;1612775;72;1635;-63
2023/05/14 09:08:07;;;;;;;;;;;21.80;51.30;;;;;;1607518;72;1940;-63
2023/05/14 09:10:10;;;;;;;;;;;21.80;51.20;;;;;;1606484;72;747;-64
2023/05/14 09:12:12;;;;;;;;;;;21.80;51.20;;;;;;1608838;72;1162;-63
2023/05/14 09:14:13;;;;;;;;;;;21.70;51.30;;;;;;1605156;72;796;-66
2023/05/14 09:16:16;;;;;;;;;;;21.80;51.20;;;;;;1612030;72;767;-63
2023/05/14 09:18:18;;;;;;;;;;;21.80;51.20;;;;;;1608052;72;765;-63
2023/05/14 09:20:21;;;;;;;;;;;21.80;51.30;;;;;;1610173;72;762;-66
2023/05/14 09:22:23;;;;;;;;;;;21.80;51.20;;;;;;1608563;72;1421;-63
2023/05/14 09:24:25;;;;;;;;;;;21.80;51.20;;;;;;1603288;73;780;-63
2023/05/14 09:26:27;;;;;;;;;;;21.80;51.20;;;;;;1603392;72;784;-63
2023/05/14 09:28:29;;;;;;;;;;;21.80;51.20;;;;;;1606180;72;1966;-65
2023/05/14 09:30:33;;;;;;;;;;;21.80;51.20;;;;;;1613031;72;1162;-65
2023/05/14 09:32:39;;;;;;;;;;;21.80;51.20;;;;;;1609085;72;750;-64
2023/05/14 09:34:41;;;;;;;;;;;21.70;51.30;;;;;;1605184;72;1646;-63
2023/05/14 09:36:43;;;;;;;;;;;21.70;51.30;;;;;;1608212;72;786;-63
2023/05/14 09:38:45;;;;;;;;;;;21.70;51.30;;;;;;1613323;72;788;-61
2023/05/14 09:40:46;;;;;;;;;;;21.80;51.20;;;;;;1616328;72;1254;-62
2023/05/14 09:42:48;;;;;;;;;;;21.80;51.20;;;;;;1612670;72;635;-65
2023/05/14 09:44:52;;;;;;;;;;;21.80;51.30;;;;;;1612913;72;727;-64
2023/05/14 09:46:54;;;;;;;;;;;21.80;51.30;;;;;;1609456;72;773;-69
2023/05/14 09:48:56;;;;;;;;;;;21.80;51.30;;;;;;1608081;71;1941;-67
2023/05/14 09:50:58;;;;;;;;;;;21.80;51.20;;;;;;1604199;72;1174;-64
2023/05/14 09:53:00;;;;;;;;;;;21.90;51.30;;;;;;1608106;72;1126;-63
2023/05/14 09:55:02;;;;;;;;;;;21.90;51.30;;;;;;1611124;72;1276;-64
2023/05/14 09:57:03;;;;;;;;;;;21.80;51.20;;;;;;1603007;72;1249;-65
2023/05/14 09:59:05;;;;;;;;;;;21.90;51.50;;;;;;1607423;72;1156;-69
2023/05/14 10:01:07;;;;;;;;;;;21.90;51.40;;;;;;1610179;72;1255;-67
2023/05/14 10:03:09;;;;;;;;;;;21.80;51.40;;;;;;1603642;72;1385;-64
2023/05/14 10:05:12;;;;;;;;;;;21.90;51.60;;;;;;1610494;72;1227;-65
2023/05/14 10:07:13;;;;;;;;;;;21.90;51.60;;;;;;1609206;72;1420;-69
2023/05/14 10:09:15;;;;;;;;;;;21.90;51.80;;;;;;1610948;72;1967;-67
2023/05/14 10:11:23;;;;;;;;;;;21.90;51.70;;;;;;1609957;72;1252;-69
2023/05/14 10:13:26;;;;;;;;;;;21.90;51.60;;;;;;1612263;72;1244;-69
2023/05/14 10:15:30;;;;;;;;;;;21.80;51.40;;;;;;1605741;72;1803;-70
2023/05/14 10:17:33;;;;;;;;;;;21.90;51.50;;;;;;1601950;72;1385;-70
2023/05/14 10:19:35;;;;;;;;;;;21.80;51.50;;;;;;1583809;74;1153;-69
2023/05/14 10:21:37;;;;;;;;;;;21.80;51.50;;;;;;1575379;74;1247;-72
2023/05/14 10:23:39;;;;;;;;;;;21.80;51.60;;;;;;1571711;74;1222;-71
2023/05/14 10:25:41;;;;;;;;;;;21.80;51.60;;;;;;1575222;74;1249;-68
2023/05/14 10:27:43;;;;;;;;;;;21.80;51.60;;;;;;1576916;74;1251;-69
2023/05/14 10:29:46;;;;;;;;;;;21.80;51.60;;;;;;1576702;74;1956;-69
2023/05/14 10:31:54;;;;;;;;;;;21.80;51.70;;;;;;1569771;74;1835;-68
2023/05/14 10:33:56;;;;;;;;;;;21.70;51.70;;;;;;1566866;74;1238;-71
2023/05/14 10:35:59;;;;;;;;;;;21.70;51.70;;;;;;1569954;75;1374;-69
2023/05/14 10:38:01;;;;;;;;;;;21.80;51.70;;;;;;1567045;74;1196;-69
2023/05/14 10:40:05;;;;;;;;;;;21.70;51.80;;;;;;1571378;74;1282;-72
2023/05/14 10:42:07;;;;;;;;;;;21.70;51.60;;;;;;1566464;75;1362;-70
2023/05/14 10:44:09;;;;;;;;;;;21.70;51.60;;;;;;1571896;74;1146;-70
2023/05/14 10:46:11;;;;;;;;;;;21.70;51.60;;;;;;1566558;74;1269;-71
2023/05/14 10:48:13;;;;;;;;;;;21.70;51.60;;;;;;1564979;74;1137;-73
2023/05/14 10:50:16;;;;;;;;;;;21.80;51.60;;;;;;1548266;75;1953;-69
2023/05/14 10:52:18;;;;;;;;;;;21.70;51.70;;;;;;1549704;75;1259;-71
2023/05/14 10:54:20;;;;;;;;;;;21.70;51.70;;;;;;1575928;74;1044;-70
2023/05/14 10:56:22;;;;;;;;;;;21.80;51.70;;;;;;1541032;75;1247;-69
2023/05/14 10:58:24;;;;;;;;;;;21.70;51.70;;;;;;1574960;74;1222;-70
2023/05/14 11:00:26;;;;;;;;;;;21.80;51.70;;;;;;1543032;75;1332;-71
2023/05/14 11:02:38;;;;;;;;;;;21.70;51.80;;;;;;1556509;75;1370;-70
2023/05/14 11:04:40;;;;;;;;;;;21.70;51.80;;;;;;1606197;72;1243;-69
2023/05/14 11:06:42;;;;;;;;;;;21.70;51.80;;;;;;1613379;72;1499;-69
2023/05/14 11:08:45;;;;;;;;;;;21.70;51.80;;;;;;1607884;72;1938;-69
2023/05/14 11:10:47;;;;;;;;;;;21.70;51.80;;;;;;1610212;72;1360;-70
2023/05/14 11:12:49;;;;;;;;;;;21.70;51.80;;;;;;1619838;72;1273;-71
2023/05/14 11:14:51;;;;;;;;;;;21.70;51.80;;;;;;1614521;72;1495;-69
2023/05/14 11:16:53;;;;;;;;;;;21.70;51.90;;;;;;1610177;72;1170;-69
2023/05/14 11:19:04;;;;;;;;;;;21.70;51.80;;;;;;1612786;72;1106;-69
2023/05/14 11:21:06;;;;;;;;;;;21.70;51.80;;;;;;1608260;72;1162;-68
2023/05/14 11:23:08;;;;;;;;;;;21.70;51.80;;;;;;1609329;72;1106;-70
2023/05/14 11:25:13;;;;;;;;;;;21.70;51.80;;;;;;1607668;72;1209;-69
2023/05/14 11:27:14;;;;;;;;;;;21.70;51.90;;;;;;1611502;73;1346;-71
2023/05/14 11:29:16;;;;;;;;;;;21.70;51.80;;;;;;1607048;72;1944;-69
2023/05/14 11:31:18;;;;;;;;;;;21.70;51.80;;;;;;1610430;72;1154;-70
2023/05/14 11:33:20;;;;;;;;;;;21.70;51.80;;;;;;1610138;72;1192;-71
2023/05/14 11:35:22;;;;;;;;;;;21.70;51.70;;;;;;1612578;72;1406;-70
2023/05/14 11:37:24;;;;;;;;;;;21.70;51.80;;;;;;1609276;72;1219;-69
2023/05/14 11:39:26;;;;;;;;;;;21.70;51.80;;;;;;1613976;72;1367;-67
2023/05/14 11:41:29;;;;;;;;;;;21.70;51.80;;;;;;1611356;72;1365;-69
2023/05/14 11:43:31;;;;;;;;;;;21.70;51.80;;;;;;1607890;72;1223;-72
2023/05/14 11:45:33;;;;;;;;;;;21.70;51.80;;;;;;1605156;72;1116;-69
2023/05/14 11:47:35;;;;;;;;;;;21.70;51.70;;;;;;1609410;72;1018;-71
2023/05/14 11:49:37;;;;;;;;;;;21.70;51.80;;;;;;1609548;72;1946;-70
2023/05/14 11:51:39;;;;;;;;;;;21.70;51.80;;;;;;1602661;72;1362;-69
2023/05/14 11:53:41;;;;;;;;;;;21.70;51.80;;;;;;1611414;72;1272;-70
2023/05/14 11:55:42;;;;;;;;;;;21.70;51.90;;;;;;1612811;72;1385;-70
2023/05/14 11:57:44;;;;;;;;;;;21.70;52.00;;;;;;1610607;72;1241;-69
2023/05/14 11:59:46;;;;;;;;;;;21.70;52.00;;;;;;1605286;72;1248;-70
2023/05/14 12:01:48;;;;;;;;;;;21.70;52.10;;;;;;1607756;72;1287;-70
2023/05/14 12:03:50;;;;;;;;;;;21.60;51.90;;;;;;1609269;72;1219;-70
2023/05/14 12:05:58;;;;;;;;;;;21.70;52.10;;;;;;1608565;72;1426;-70